Time;durP1;ratioP1;P1;durP2;ratioP2;P2;SDS_P1;SDS_P2;PMS_P1;PMS_P2;Temp;Humidity;BMP_temperature;BMP_pressure;BME280_temperature;BME280_humidity;BME280_pressure;Samples;Min_cycle;Max_cycle;Signal;HPM_P1;HPM_P2
2023/12/07 00:00:20;;;;;;;86.50;28.33;;;-3.10;99.90;;;;;;4452235;27;660709;-70
2023/12/07 00:03:09;;;;;;;92.00;27.40;;;-3.20;99.90;;;;;;4437968;27;659613;-70
2023/12/07 00:05:56;;;;;;;82.67;26.67;;;-3.10;99.90;;;;;;4451783;27;659551;-71
2023/12/07 00:08:43;;;;;;;78.88;26.27;;;-3.10;99.90;;;;;;4423696;28;660192;-70
2023/12/07 00:11:30;;;;;;;78.60;25.80;;;-3.10;99.90;;;;;;4455120;27;659782;-71
2023/12/07 00:14:17;;;;;;;78.80;25.75;;;-3.10;99.90;;;;;;4439069;27;659668;-70
2023/12/07 00:17:05;;;;;;;78.70;25.73;;;-3.10;99.90;;;;;;4459193;28;660221;-70
2023/12/07 00:19:55;;;;;;;81.23;26.60;;;-3.00;99.90;;;;;;4458958;27;659656;-70
2023/12/07 00:22:42;;;;;;;77.83;25.47;;;-3.10;99.90;;;;;;4437936;27;659960;-70
2023/12/07 00:25:29;;;;;;;81.00;25.60;;;-3.10;99.90;;;;;;4454734;27;660864;-70
2023/12/07 00:28:17;;;;;;;75.67;25.70;;;-3.10;99.90;;;;;;4459580;27;659483;-70
2023/12/07 00:31:04;;;;;;;77.20;26.40;;;-3.00;99.90;;;;;;4439496;28;659894;-70
2023/12/07 00:33:51;;;;;;;69.53;23.07;;;-2.90;99.90;;;;;;4443367;27;659561;-71
2023/12/07 00:36:40;;;;;;;88.40;26.57;;;-3.00;99.90;;;;;;4431506;27;659817;-70
2023/12/07 00:39:27;;;;;;;79.68;25.70;;;-2.90;99.90;;;;;;4430188;28;659604;-71
2023/12/07 00:42:15;;;;;;;73.23;24.87;;;-2.90;99.90;;;;;;4456972;27;660052;-70
2023/12/07 00:45:02;;;;;;;82.93;26.60;;;-2.90;99.90;;;;;;4444358;27;659560;-70
2023/12/07 00:47:50;;;;;;;81.13;24.97;;;-2.90;99.90;;;;;;4456971;27;660285;-70
2023/12/07 00:50:37;;;;;;;71.70;24.70;;;-2.90;99.90;;;;;;4464512;27;658949;-70
2023/12/07 00:53:26;;;;;;;83.35;25.77;;;-2.90;99.90;;;;;;4451616;27;660058;-71
2023/12/07 00:56:13;;;;;;;76.53;24.23;;;-2.90;99.90;;;;;;4430239;27;659772;-71
2023/12/07 00:59:00;;;;;;;77.37;26.00;;;-2.90;99.90;;;;;;4459262;27;660882;-71
2023/12/07 01:01:47;;;;;;;76.33;24.50;;;-2.80;99.90;;;;;;4440200;27;659862;-70
2023/12/07 01:04:35;;;;;;;75.10;24.40;;;-2.80;99.90;;;;;;4459769;27;659756;-71
2023/12/07 01:07:22;;;;;;;73.53;23.53;;;-2.80;99.90;;;;;;4442396;28;659987;-70
2023/12/07 01:10:11;;;;;;;88.20;25.17;;;-2.80;99.90;;;;;;4454669;28;661011;-71
2023/12/07 01:12:58;;;;;;;92.57;27.13;;;-2.90;99.90;;;;;;4430926;27;660351;-70
2023/12/07 01:15:45;;;;;;;81.27;26.23;;;-2.80;99.90;;;;;;4449202;27;660249;-71
2023/12/07 01:18:33;;;;;;;80.33;25.80;;;-2.80;99.90;;;;;;4431081;28;660251;-71
2023/12/07 01:21:20;;;;;;;82.97;25.47;;;-2.80;99.90;;;;;;4453026;27;661236;-70
2023/12/07 01:24:08;;;;;;;79.90;25.98;;;-2.80;99.90;;;;;;4438548;28;659460;-71
2023/12/07 01:26:56;;;;;;;79.43;25.17;;;-2.80;99.90;;;;;;4452149;27;659325;-71
2023/12/07 01:29:43;;;;;;;75.07;27.05;;;-2.80;99.90;;;;;;4430883;28;660348;-70
2023/12/07 01:32:31;;;;;;;74.17;24.57;;;-2.80;99.90;;;;;;4459425;27;660551;-71
2023/12/07 01:35:18;;;;;;;76.93;25.17;;;-2.80;99.90;;;;;;4437000;27;659605;-70
2023/12/07 01:38:05;;;;;;;78.60;25.77;;;-2.90;99.90;;;;;;4442277;28;660076;-71
2023/12/07 01:40:52;;;;;;;76.30;24.53;;;-2.90;99.90;;;;;;4424539;28;659336;-68
2023/12/07 01:43:47;;;;;;;72.27;24.00;;;-2.90;99.90;;;;;;4453455;28;660232;-69
2023/12/07 01:46:34;;;;;;;75.77;24.80;;;-2.80;99.90;;;;;;4440350;27;660380;-69
2023/12/07 01:49:21;;;;;;;88.77;26.50;;;-2.80;99.90;;;;;;4446496;27;659746;-69
2023/12/07 01:52:09;;;;;;;80.93;25.27;;;-2.80;99.90;;;;;;4417417;27;659740;-68
2023/12/07 01:54:56;;;;;;;74.17;25.77;;;-2.70;99.90;;;;;;4450272;28;660059;-69
2023/12/07 01:57:43;;;;;;;76.37;24.57;;;-2.80;99.90;;;;;;4431084;27;659673;-69
2023/12/07 02:00:32;;;;;;;73.63;24.90;;;-2.70;99.90;;;;;;4448765;28;661366;-69
2023/12/07 02:03:20;;;;;;;76.00;24.43;;;-2.70;99.90;;;;;;4418212;28;660641;-69
2023/12/07 02:06:08;;;;;;;70.72;22.90;;;-2.70;99.90;;;;;;4434520;28;659938;-68
2023/12/07 02:08:55;;;;;;;78.73;24.20;;;-2.60;99.90;;;;;;4447041;28;660499;-68
2023/12/07 02:11:43;;;;;;;86.00;25.23;;;-2.70;99.90;;;;;;4437380;27;659781;-68
2023/12/07 02:14:30;;;;;;;68.20;24.03;;;-2.70;99.90;;;;;;4447059;28;660235;-69
2023/12/07 02:17:22;;;;;;;80.83;24.57;;;-2.70;99.90;;;;;;4438090;28;659435;-69
2023/12/07 02:20:11;;;;;;;72.63;23.90;;;-2.70;99.90;;;;;;4432369;27;660230;-71
2023/12/07 02:23:02;;;;;;;74.60;24.43;;;-2.60;99.90;;;;;;4423619;28;661064;-71
2023/12/07 02:25:52;;;;;;;69.33;23.50;;;-2.70;99.90;;;;;;4433743;27;660363;-71
2023/12/07 02:28:40;;;;;;;68.57;23.97;;;-2.80;99.90;;;;;;4433316;28;660674;-71
2023/12/07 02:31:28;;;;;;;72.20;24.90;;;-2.80;99.90;;;;;;4432742;28;659597;-69
2023/12/07 02:34:15;;;;;;;68.40;23.43;;;-2.80;99.90;;;;;;4450937;27;659937;-69
2023/12/07 02:37:02;;;;;;;78.63;25.02;;;-2.90;99.90;;;;;;4437677;28;659805;-68
2023/12/07 02:39:50;;;;;;;81.80;24.73;;;-2.90;99.90;;;;;;4449673;28;659986;-69
2023/12/07 02:42:38;;;;;;;73.83;25.47;;;-2.90;99.90;;;;;;4449431;28;659926;-69
2023/12/07 02:45:27;;;;;;;83.50;24.83;;;-2.80;99.90;;;;;;4462899;28;660391;-69
2023/12/07 02:48:14;;;;;;;72.60;23.60;;;-2.90;99.90;;;;;;4425688;28;659810;-69
2023/12/07 02:51:01;;;;;;;73.93;23.80;;;-3.00;99.90;;;;;;4454220;28;659343;-68
2023/12/07 02:53:48;;;;;;;80.30;24.40;;;-3.00;99.90;;;;;;4434305;28;660006;-68
2023/12/07 02:56:36;;;;;;;70.13;23.03;;;-3.00;99.90;;;;;;4452162;28;660036;-69
2023/12/07 02:59:23;;;;;;;74.17;23.13;;;-3.00;99.90;;;;;;4427802;28;659646;-69
2023/12/07 03:02:11;;;;;;;69.87;22.47;;;-3.00;99.90;;;;;;4448933;28;660058;-69
2023/12/07 03:04:59;;;;;;;72.70;23.77;;;-2.90;99.90;;;;;;4426623;28;659912;-68
2023/12/07 03:07:46;;;;;;;69.00;22.07;;;-2.90;99.90;;;;;;4444047;28;659912;-69
2023/12/07 03:10:33;;;;;;;68.60;24.43;;;-3.00;99.90;;;;;;4427463;28;661264;-68
2023/12/07 03:13:20;;;;;;;69.00;23.57;;;-2.90;99.90;;;;;;4453477;28;660529;-69
2023/12/07 03:16:09;;;;;;;70.13;22.47;;;-2.90;99.90;;;;;;4436660;28;659618;-70
2023/12/07 03:18:58;;;;;;;66.90;21.73;;;-2.80;99.90;;;;;;4457357;28;659610;-71
2023/12/07 03:21:45;;;;;;;69.07;22.00;;;-2.80;99.90;;;;;;4422525;28;660135;-71
2023/12/07 03:24:32;;;;;;;69.90;22.50;;;-2.90;99.90;;;;;;4437451;28;659454;-71
2023/12/07 03:27:20;;;;;;;71.03;21.50;;;-3.00;99.90;;;;;;4460804;27;660188;-71
2023/12/07 03:30:08;;;;;;;69.55;22.30;;;-3.00;99.90;;;;;;4433110;27;661254;-71
2023/12/07 03:32:55;;;;;;;68.28;22.77;;;-3.00;99.90;;;;;;4448517;28;660336;-71
2023/12/07 03:35:44;;;;;;;77.50;23.83;;;-2.90;99.90;;;;;;4432789;27;661130;-70
2023/12/07 03:38:31;;;;;;;69.57;21.37;;;-3.00;99.90;;;;;;4452934;28;659795;-71
2023/12/07 03:41:19;;;;;;;64.40;21.50;;;-2.90;99.90;;;;;;4437324;27;659766;-71
2023/12/07 03:44:06;;;;;;;57.73;18.73;;;-2.90;99.90;;;;;;4459052;27;660570;-70
2023/12/07 03:46:53;;;;;;;64.63;20.40;;;-2.90;99.90;;;;;;4433014;27;660114;-70
2023/12/07 03:49:41;;;;;;;62.13;20.97;;;-2.90;99.90;;;;;;4448517;27;660345;-70
2023/12/07 03:52:29;;;;;;;75.37;22.20;;;-2.90;99.90;;;;;;4427445;28;659621;-70
2023/12/07 03:55:17;;;;;;;62.50;20.93;;;-2.90;99.90;;;;;;4454072;27;659659;-70
2023/12/07 03:58:04;;;;;;;61.53;20.77;;;-2.80;99.90;;;;;;4429839;27;659910;-70
2023/12/07 04:00:51;;;;;;;63.17;20.02;;;-2.80;99.90;;;;;;4448149;28;660669;-70
2023/12/07 04:03:39;;;;;;;66.60;20.60;;;-2.80;99.90;;;;;;4424459;27;660450;-71
2023/12/07 04:06:26;;;;;;;64.03;19.13;;;-2.80;99.90;;;;;;4455526;27;660493;-70
2023/12/07 04:09:15;;;;;;;62.60;20.13;;;-2.80;99.90;;;;;;4436800;27;660580;-70
2023/12/07 04:12:02;;;;;;;55.70;18.10;;;-2.90;99.90;;;;;;4448889;27;659023;-70
2023/12/07 04:14:51;;;;;;;61.60;20.13;;;-2.90;99.90;;;;;;4427826;28;660332;-71
2023/12/07 04:17:38;;;;;;;69.33;19.87;;;-2.90;99.90;;;;;;4435460;27;660100;-70
2023/12/07 04:20:25;;;;;;;72.70;22.10;;;-2.90;99.90;;;;;;4462340;27;659816;-71
2023/12/07 04:23:12;;;;;;;64.20;20.73;;;-2.90;99.90;;;;;;4438743;27;659873;-70
2023/12/07 04:26:01;;;;;;;67.77;21.47;;;-2.90;99.90;;;;;;4460078;27;659745;-70
2023/12/07 04:28:48;;;;;;;61.10;19.13;;;-2.90;99.90;;;;;;4429476;27;660078;-71
2023/12/07 04:31:36;;;;;;;62.60;21.00;;;-2.90;99.90;;;;;;4456194;27;660646;-71
2023/12/07 04:34:23;;;;;;;56.43;18.60;;;-2.90;99.90;;;;;;4436181;27;659714;-70
2023/12/07 04:37:10;;;;;;;62.30;20.03;;;-2.90;99.90;;;;;;4456944;28;660430;-71
2023/12/07 04:39:58;;;;;;;64.13;20.33;;;-2.90;99.90;;;;;;4439736;27;660239;-71
2023/12/07 04:42:47;;;;;;;65.90;20.83;;;-3.00;99.90;;;;;;4454209;27;660916;-71
2023/12/07 04:45:34;;;;;;;64.33;21.20;;;-2.90;99.90;;;;;;4434068;28;660659;-71
2023/12/07 04:48:21;;;;;;;61.27;19.30;;;-3.00;99.90;;;;;;4450748;27;659642;-71
2023/12/07 04:51:08;;;;;;;56.77;18.90;;;-2.90;99.90;;;;;;4432217;27;659695;-70
2023/12/07 04:53:55;;;;;;;73.80;22.53;;;-2.90;99.90;;;;;;4443811;28;660327;-70
2023/12/07 04:56:43;;;;;;;50.53;17.43;;;-2.90;99.90;;;;;;4429086;27;659680;-70
2023/12/07 04:59:31;;;;;;;58.97;18.20;;;-2.80;99.90;;;;;;4455088;28;660955;-70
2023/12/07 05:02:18;;;;;;;64.20;19.97;;;-2.90;99.90;;;;;;4436751;27;659745;-70
2023/12/07 05:05:06;;;;;;;69.47;20.95;;;-2.90;99.90;;;;;;4456091;27;660029;-70
2023/12/07 05:07:53;;;;;;;57.13;16.90;;;-2.90;99.90;;;;;;4435602;27;659931;-71
2023/12/07 05:10:40;;;;;;;67.97;22.43;;;-2.90;99.90;;;;;;4455771;28;660258;-71
2023/12/07 05:13:27;;;;;;;74.90;23.50;;;-2.90;99.90;;;;;;4435067;28;660241;-70
2023/12/07 05:16:16;;;;;;;67.77;20.70;;;-2.90;99.90;;;;;;4461579;27;660655;-70
2023/12/07 05:19:03;;;;;;;71.67;22.33;;;-2.90;99.90;;;;;;4442924;27;660044;-71
2023/12/07 05:21:50;;;;;;;71.70;20.95;;;-2.90;99.90;;;;;;4463579;27;660468;-70
2023/12/07 05:24:38;;;;;;;71.53;20.90;;;-2.80;99.90;;;;;;4437389;27;659797;-70
2023/12/07 05:27:25;;;;;;;57.70;16.37;;;-2.90;99.90;;;;;;4458861;27;660164;-70
2023/12/07 05:30:13;;;;;;;69.00;20.93;;;-2.80;99.90;;;;;;4436308;28;660083;-70
2023/12/07 05:33:02;;;;;;;74.07;22.57;;;-2.90;99.90;;;;;;4458236;27;660008;-70
2023/12/07 05:35:49;;;;;;;64.97;21.10;;;-2.90;99.90;;;;;;4430688;27;660509;-70
2023/12/07 05:38:36;;;;;;;75.63;22.10;;;-2.80;99.90;;;;;;4456688;27;659678;-70
2023/12/07 05:41:23;;;;;;;71.63;23.30;;;-2.80;99.90;;;;;;4428049;28;660180;-71
2023/12/07 05:44:10;;;;;;;65.90;20.50;;;-2.80;99.90;;;;;;4457150;27;659488;-71
2023/12/07 05:46:58;;;;;;;64.10;18.77;;;-2.80;99.90;;;;;;4437419;27;659615;-70
2023/12/07 05:49:47;;;;;;;69.63;21.07;;;-2.80;99.90;;;;;;4453721;27;660416;-71
2023/12/07 05:52:34;;;;;;;84.10;24.33;;;-2.90;99.90;;;;;;4435924;27;661144;-71
2023/12/07 05:55:21;;;;;;;78.07;22.50;;;-2.80;99.90;;;;;;4452979;27;659523;-71
2023/12/07 05:58:08;;;;;;;78.10;23.47;;;-2.80;99.90;;;;;;4426730;28;659678;-71
2023/12/07 06:00:55;;;;;;;61.10;19.10;;;-2.70;99.90;;;;;;4456498;27;660599;-71
2023/12/07 06:03:42;;;;;;;73.00;21.70;;;-2.80;99.90;;;;;;4434234;28;660205;-70
2023/12/07 06:06:31;;;;;;;67.00;21.97;;;-2.80;99.90;;;;;;4452360;28;659573;-71
2023/12/07 06:09:18;;;;;;;69.40;22.93;;;-2.80;99.90;;;;;;4421306;28;660173;-71
2023/12/07 06:12:05;;;;;;;74.60;21.63;;;-2.80;99.90;;;;;;4447168;28;660259;-71
2023/12/07 06:14:53;;;;;;;68.77;21.73;;;-2.80;99.90;;;;;;4434352;27;659801;-71
2023/12/07 06:17:41;;;;;;;65.97;18.60;;;-2.70;99.90;;;;;;4461750;27;659413;-70
2023/12/07 06:20:29;;;;;;;70.17;21.10;;;-2.80;99.90;;;;;;4424392;28;661463;-71
2023/12/07 06:23:17;;;;;;;74.90;21.83;;;-2.70;99.90;;;;;;4446932;27;661391;-71
2023/12/07 06:26:05;;;;;;;78.00;21.03;;;-2.70;99.90;;;;;;4428810;28;661855;-71
2023/12/07 06:28:52;;;;;;;62.17;18.37;;;-2.70;99.90;;;;;;4424175;28;661048;-71
2023/12/07 06:31:44;;;;;;;68.63;20.67;;;-2.70;99.90;;;;;;4446833;28;661020;-71
2023/12/07 06:34:31;;;;;;;77.27;22.30;;;-2.70;99.90;;;;;;4426485;28;660927;-71
2023/12/07 06:37:20;;;;;;;67.20;19.40;;;-2.70;99.90;;;;;;4428464;28;660694;-71
2023/12/07 06:40:10;;;;;;;64.73;20.43;;;-2.70;99.90;;;;;;4456283;28;660325;-71
2023/12/07 06:42:58;;;;;;;84.30;23.53;;;-2.60;99.90;;;;;;4428205;28;661150;-70
2023/12/07 06:45:45;;;;;;;80.80;22.67;;;-2.70;99.90;;;;;;4455009;28;661204;-71
2023/12/07 06:48:32;;;;;;;89.97;25.77;;;-2.70;99.90;;;;;;4446297;28;660555;-71
2023/12/07 06:51:20;;;;;;;84.80;25.07;;;-2.70;99.90;;;;;;4459420;28;661478;-71
2023/12/07 06:54:08;;;;;;;84.70;25.20;;;-2.70;99.90;;;;;;4460257;27;661558;-71
2023/12/07 06:56:56;;;;;;;96.33;27.97;;;-2.60;99.90;;;;;;4446484;28;661833;-71
2023/12/07 06:59:43;;;;;;;85.27;23.17;;;-2.60;99.90;;;;;;4436780;27;660858;-71
2023/12/07 07:02:30;;;;;;;96.33;27.97;;;-2.60;99.90;;;;;;4446666;28;660870;-71
2023/12/07 07:05:18;;;;;;;95.07;26.50;;;-2.60;99.90;;;;;;4432923;28;660931;-71
2023/12/07 07:08:06;;;;;;;93.07;26.67;;;-2.60;99.90;;;;;;4442484;27;661358;-71
2023/12/07 07:10:53;;;;;;;87.23;26.70;;;-2.50;99.90;;;;;;4440475;27;660750;-71
2023/12/07 07:13:42;;;;;;;93.77;26.20;;;-2.60;99.90;;;;;;4456931;28;661100;-72
2023/12/07 07:16:30;;;;;;;89.23;26.07;;;-2.50;99.90;;;;;;4437161;27;661577;-71
2023/12/07 07:19:17;;;;;;;98.63;26.73;;;-2.60;99.90;;;;;;4444202;27;660329;-71
2023/12/07 07:22:05;;;;;;;84.57;25.87;;;-2.50;99.90;;;;;;4465155;27;660904;-71
2023/12/07 07:24:53;;;;;;;97.45;26.38;;;-2.40;99.90;;;;;;4444263;27;661543;-71
2023/12/07 07:27:40;;;;;;;93.83;26.70;;;-2.30;99.90;;;;;;4458425;27;661402;-71
2023/12/07 07:30:29;;;;;;;96.13;26.33;;;-2.40;99.90;;;;;;4446691;28;661082;-71
2023/12/07 07:33:16;;;;;;;91.43;26.00;;;-2.30;99.90;;;;;;4449516;28;660878;-71
2023/12/07 07:36:03;;;;;;;93.47;26.60;;;-2.30;99.90;;;;;;4432645;28;660726;-70
2023/12/07 07:38:51;;;;;;;63.00;20.30;;;-2.20;99.90;;;;;;4446430;28;661399;-71
2023/12/07 07:41:38;;;;;;;93.97;26.67;;;-2.10;99.90;;;;;;4435866;28;661194;-71
2023/12/07 07:44:25;;;;;;;93.27;26.30;;;-2.10;99.90;;;;;;4456751;28;661594;-71
2023/12/07 07:47:14;;;;;;;90.30;27.47;;;-2.00;99.90;;;;;;4451779;28;660726;-71
2023/12/07 07:50:05;;;;;;;84.30;25.17;;;-2.00;99.90;;;;;;4451054;28;660818;-71
2023/12/07 07:52:52;;;;;;;76.93;22.97;;;-1.90;99.90;;;;;;4433633;28;660525;-71
2023/12/07 07:55:39;;;;;;;82.43;25.43;;;-1.70;99.90;;;;;;4427697;28;661486;-71
2023/12/07 07:58:26;;;;;;;77.17;20.83;;;-1.70;99.90;;;;;;4454767;28;660893;-71
2023/12/07 08:01:14;;;;;;;88.70;26.33;;;-1.90;99.90;;;;;;4429047;28;660839;-71
2023/12/07 08:04:02;;;;;;;87.67;26.93;;;-1.90;99.90;;;;;;4449824;28;661750;-71
2023/12/07 08:06:49;;;;;;;92.07;26.73;;;-1.80;99.90;;;;;;4427781;28;662180;-71
2023/12/07 08:09:37;;;;;;;94.47;27.90;;;-1.80;99.90;;;;;;4452495;28;660530;-71
2023/12/07 08:12:24;;;;;;;55.47;16.77;;;-1.70;99.90;;;;;;4435008;28;661216;-71
2023/12/07 08:15:11;;;;;;;83.27;27.60;;;-1.70;99.90;;;;;;4454622;28;661758;-70
2023/12/07 08:17:58;;;;;;;92.60;28.53;;;-1.70;99.90;;;;;;4434470;28;661343;-71
2023/12/07 08:20:47;;;;;;;70.57;20.60;;;-1.80;99.90;;;;;;4458856;27;663141;-71
2023/12/07 08:23:34;;;;;;;86.77;27.57;;;-1.70;99.90;;;;;;4431972;28;660866;-71
2023/12/07 08:26:22;;;;;;;90.13;27.90;;;-1.70;99.90;;;;;;4453501;27;661483;-70
2023/12/07 08:29:09;;;;;;;84.80;29.40;;;-1.50;99.90;;;;;;4432684;27;661938;-71
2023/12/07 08:31:56;;;;;;;89.00;28.97;;;-1.60;99.90;;;;;;4458129;28;660530;-70
2023/12/07 08:34:44;;;;;;;92.57;28.43;;;-1.50;99.90;;;;;;4433168;28;661051;-70
2023/12/07 08:37:32;;;;;;;99.23;29.63;;;-1.60;99.90;;;;;;4446412;28;661294;-71
2023/12/07 08:40:19;;;;;;;87.18;27.58;;;-1.40;99.90;;;;;;4428815;27;661009;-70
2023/12/07 08:43:07;;;;;;;78.33;26.03;;;-1.30;99.90;;;;;;4456112;27;661061;-71
2023/12/07 08:45:54;;;;;;;90.47;27.77;;;-1.50;99.90;;;;;;4432516;27;660841;-71
2023/12/07 08:48:41;;;;;;;87.47;27.73;;;-1.30;99.90;;;;;;4443365;28;661663;-71
2023/12/07 08:51:29;;;;;;;98.53;30.30;;;-1.20;99.90;;;;;;4429579;27;661486;-71
2023/12/07 08:54:17;;;;;;;96.23;27.07;;;-1.20;99.90;;;;;;4451227;27;661345;-71
2023/12/07 08:57:05;;;;;;;79.57;25.97;;;-1.10;99.90;;;;;;4431477;27;661720;-70
2023/12/07 08:59:54;;;;;;;90.63;28.93;;;-0.90;99.90;;;;;;4445607;27;662179;-70
2023/12/07 09:02:41;;;;;;;51.35;15.43;;;-1.00;99.90;;;;;;4440460;28;661173;-71
2023/12/07 09:05:29;;;;;;;90.73;27.77;;;-1.00;99.90;;;;;;4432300;27;661454;-70
2023/12/07 09:08:17;;;;;;;81.93;26.20;;;-1.00;99.90;;;;;;4441212;27;661845;-71
2023/12/07 09:11:06;;;;;;;84.33;27.80;;;-1.00;99.90;;;;;;4428271;28;661100;-70
2023/12/07 09:13:53;;;;;;;89.70;28.45;;;-0.90;99.90;;;;;;4425447;28;660703;-71
2023/12/07 09:16:45;;;;;;;98.20;30.97;;;-0.90;99.90;;;;;;4442553;28;661438;-70
2023/12/07 09:19:33;;;;;;;81.07;25.20;;;-0.70;99.90;;;;;;4412762;28;661443;-71
2023/12/07 09:22:20;;;;;;;63.13;18.87;;;-0.60;99.90;;;;;;4456082;28;662273;-70
2023/12/07 09:25:09;;;;;;;92.43;27.50;;;-0.70;99.90;;;;;;4444443;28;660560;-70
2023/12/07 09:27:59;;;;;;;80.67;25.23;;;-0.80;99.90;;;;;;4447842;28;661683;-71
2023/12/07 09:30:46;;;;;;;73.90;24.20;;;-0.80;99.90;;;;;;4428631;28;661078;-71
2023/12/07 09:33:33;;;;;;;59.38;17.58;;;-0.50;99.90;;;;;;4430256;28;661326;-70
2023/12/07 09:36:21;;;;;;;74.80;26.43;;;-0.60;99.90;;;;;;4457032;28;661744;-71
2023/12/07 09:39:09;;;;;;;71.73;23.67;;;-0.40;99.90;;;;;;4423748;28;660716;-70
2023/12/07 09:41:57;;;;;;;78.87;25.93;;;-0.30;99.90;;;;;;4442515;28;660835;-71
2023/12/07 09:44:45;;;;;;;70.63;24.20;;;-0.20;99.90;;;;;;4438995;28;661110;-71
2023/12/07 09:47:32;;;;;;;73.80;24.63;;;-0.30;99.90;;;;;;4433411;28;660988;-70
2023/12/07 09:50:21;;;;;;;75.37;23.70;;;-0.30;99.90;;;;;;4456245;28;661163;-70
2023/12/07 09:53:09;;;;;;;76.53;24.93;;;-0.50;99.90;;;;;;4426453;28;660759;-70
2023/12/07 09:55:56;;;;;;;70.23;22.33;;;-0.40;99.90;;;;;;4454169;28;661858;-71
2023/12/07 09:58:43;;;;;;;76.23;25.40;;;-0.30;99.90;;;;;;4423436;28;660507;-71
2023/12/07 10:01:32;;;;;;;79.13;26.00;;;-0.10;99.90;;;;;;4447598;28;661273;-71
2023/12/07 10:04:20;;;;;;;75.57;26.57;;;0.20;99.90;;;;;;4431095;28;661125;-71
2023/12/07 10:07:08;;;;;;;78.90;24.83;;;0.30;99.90;;;;;;4441364;28;659673;-70
2023/12/07 10:09:55;;;;;;;78.33;25.13;;;0.30;99.90;;;;;;4447227;28;660429;-71
2023/12/07 10:12:47;;;;;;;79.67;25.63;;;0.40;99.90;;;;;;4430468;28;660200;-71
2023/12/07 10:15:34;;;;;;;81.00;23.93;;;0.60;99.90;;;;;;4417241;28;660787;-71
2023/12/07 10:18:25;;;;;;;67.73;23.50;;;0.70;99.90;;;;;;4460352;27;659566;-71
2023/12/07 10:21:12;;;;;;;82.63;25.77;;;0.90;99.90;;;;;;4410365;28;660425;-70
2023/12/07 10:24:00;;;;;;;70.60;25.20;;;0.40;99.90;;;;;;4448611;28;661838;-71
2023/12/07 10:26:48;;;;;;;75.13;25.40;;;0.50;99.90;;;;;;4445641;28;659616;-71
2023/12/07 10:29:36;;;;;;;68.13;24.03;;;0.80;99.90;;;;;;4427352;28;660481;-71
2023/12/07 10:32:23;;;;;;;77.97;25.30;;;0.90;99.90;;;;;;4431509;28;660183;-71
2023/12/07 10:35:12;;;;;;;77.95;27.83;;;0.50;99.90;;;;;;4446044;28;660104;-71
2023/12/07 10:37:59;;;;;;;79.97;24.27;;;0.90;99.90;;;;;;4431724;28;659981;-72
2023/12/07 10:40:47;;;;;;;83.33;27.77;;;1.30;99.90;;;;;;4451639;28;659453;-71
2023/12/07 10:43:35;;;;;;;81.43;26.80;;;0.70;99.90;;;;;;4429216;28;661394;-71
2023/12/07 10:46:23;;;;;;;77.47;24.88;;;1.10;99.90;;;;;;4432361;28;659843;-71
2023/12/07 10:49:14;;;;;;;83.70;27.40;;;1.00;99.90;;;;;;4447761;28;660056;-71
2023/12/07 10:52:04;;;;;;;60.43;17.90;;;0.80;99.90;;;;;;4420953;28;660320;-71
2023/12/07 10:54:56;;;;;;;81.93;24.70;;;0.70;99.90;;;;;;4421191;28;659886;-71
2023/12/07 10:57:43;;;;;;;87.67;28.57;;;0.50;99.90;;;;;;4402805;28;659797;-70
2023/12/07 11:00:30;;;;;;;94.77;29.27;;;0.60;99.90;;;;;;4458164;28;661198;-72
2023/12/07 11:03:18;;;;;;;90.03;28.70;;;0.60;99.90;;;;;;4431626;28;659503;-71
2023/12/07 11:06:06;;;;;;;78.63;25.27;;;0.30;99.90;;;;;;4446110;28;659426;-71
2023/12/07 11:08:58;;;;;;;86.43;29.37;;;0.50;99.90;;;;;;4424041;28;659704;-71
2023/12/07 11:11:48;;;;;;;81.67;27.97;;;0.70;99.90;;;;;;4431274;28;659892;-72
2023/12/07 11:14:35;;;;;;;85.60;28.23;;;0.70;99.90;;;;;;4437248;28;661599;-71
2023/12/07 11:17:23;;;;;;;79.00;26.27;;;0.60;99.90;;;;;;4441297;28;660060;-71
2023/12/07 11:20:13;;;;;;;86.50;28.60;;;0.70;99.90;;;;;;4451919;28;659986;-71
2023/12/07 11:23:00;;;;;;;87.20;27.93;;;0.70;99.90;;;;;;4426265;28;660224;-71
2023/12/07 11:25:51;;;;;;;86.65;27.90;;;0.80;99.90;;;;;;4427144;28;660166;-71
2023/12/07 11:28:39;;;;;;;68.50;22.67;;;1.00;99.90;;;;;;4416006;28;659557;-71
2023/12/07 11:31:27;;;;;;;84.27;28.83;;;1.00;99.90;;;;;;4451755;28;659343;-71
2023/12/07 11:34:15;;;;;;;90.85;29.15;;;0.50;99.90;;;;;;4431734;28;660969;-71
2023/12/07 11:37:02;;;;;;;88.27;28.50;;;0.30;99.90;;;;;;4445935;28;659775;-71
2023/12/07 11:39:50;;;;;;;77.77;28.53;;;0.50;99.90;;;;;;4425436;27;660500;-71
2023/12/07 11:42:40;;;;;;;71.33;26.50;;;0.50;99.90;;;;;;4432639;27;659884;-73
2023/12/07 11:45:40;;;;;;;75.33;23.27;;;0.60;99.90;;;;;;4466815;27;658565;-71
2023/12/07 11:48:28;;;;;;;83.67;28.33;;;0.70;99.90;;;;;;4406258;28;660110;-71
2023/12/07 11:51:15;;;;;;;81.57;29.00;;;0.60;99.90;;;;;;4452486;27;660379;-71
2023/12/07 11:54:02;;;;;;;83.63;28.30;;;0.50;99.90;;;;;;4437282;27;659552;-71
2023/12/07 11:56:53;;;;;;;87.53;29.00;;;0.50;99.90;;;;;;4450586;28;660397;-71
2023/12/07 11:59:43;;;;;;;18.40;7.33;;;0.50;99.90;;;;;;4428205;28;660954;-71
2023/12/07 12:02:34;;;;;;;94.97;29.93;;;0.30;99.90;;;;;;4430292;28;659195;-71
2023/12/07 12:05:21;;;;;;;83.57;26.57;;;0.10;99.90;;;;;;4435111;27;660718;-71
2023/12/07 12:08:08;;;;;;;87.60;29.43;;;0.20;99.90;;;;;;4436569;27;660032;-71
2023/12/07 12:10:57;;;;;;;70.10;25.20;;;0.10;99.90;;;;;;4452560;28;660690;-71
2023/12/07 12:13:44;;;;;;;90.90;28.20;;;0.20;99.90;;;;;;4425970;28;659443;-71
2023/12/07 12:16:33;;;;;;;79.83;25.37;;;0.10;99.90;;;;;;4453013;28;659443;-70
2023/12/07 12:19:20;;;;;;;76.90;25.00;;;0.20;99.90;;;;;;4438123;27;660074;-71
2023/12/07 12:22:08;;;;;;;100.63;28.63;;;0.00;99.90;;;;;;4427043;28;659568;-71
2023/12/07 12:24:55;;;;;;;80.07;26.43;;;-0.10;99.90;;;;;;4456050;27;661958;-71
2023/12/07 12:27:44;;;;;;;81.90;26.87;;;-0.20;99.90;;;;;;4458260;28;661238;-70
2023/12/07 12:30:31;;;;;;;85.53;30.13;;;-0.30;99.90;;;;;;4448357;28;660505;-71
2023/12/07 12:33:20;;;;;;;69.30;21.70;;;-0.20;99.90;;;;;;4428829;27;662260;-71
2023/12/07 12:36:10;;;;;;;81.87;29.00;;;-0.10;99.90;;;;;;4433766;28;660549;-71
2023/12/07 12:38:57;;;;;;;77.63;25.40;;;-0.10;99.90;;;;;;4439957;28;661322;-70
2023/12/07 12:41:45;;;;;;;66.73;23.73;;;-0.10;99.90;;;;;;4454029;27;662074;-71
2023/12/07 12:44:33;;;;;;;78.70;26.63;;;-0.40;99.90;;;;;;4446722;27;661406;-70
2023/12/07 12:47:20;;;;;;;85.57;27.63;;;-0.50;99.90;;;;;;4450277;28;662109;-71
2023/12/07 12:50:10;;;;;;;76.83;26.80;;;-0.40;99.90;;;;;;4424517;28;661030;-71
2023/12/07 12:52:59;;;;;;;81.13;28.80;;;-0.40;99.90;;;;;;4438265;27;660437;-71
2023/12/07 12:55:46;;;;;;;87.00;29.20;;;-0.50;99.90;;;;;;4452964;27;661649;-72
2023/12/07 12:58:34;;;;;;;92.37;28.63;;;-0.50;99.90;;;;;;4420060;27;661316;-71
2023/12/07 13:01:21;;;;;;;85.57;25.60;;;-0.40;99.90;;;;;;4447831;27;660950;-71
2023/12/07 13:04:09;;;;;;;91.37;31.43;;;-0.40;99.90;;;;;;4434978;27;662059;-71
2023/12/07 13:06:57;;;;;;;97.60;30.30;;;-0.60;99.90;;;;;;4452784;27;660733;-71
2023/12/07 13:09:45;;;;;;;100.80;32.07;;;-0.60;99.90;;;;;;4433773;27;661023;-70
2023/12/07 13:12:35;;;;;;;117.30;34.60;;;-0.50;99.90;;;;;;4439206;28;661796;-70
2023/12/07 13:15:22;;;;;;;115.03;34.20;;;-0.60;99.90;;;;;;4448411;28;661691;-71
2023/12/07 13:18:09;;;;;;;97.17;29.87;;;-0.70;99.90;;;;;;4433152;28;662845;-71
2023/12/07 13:20:56;;;;;;;76.37;24.17;;;-0.80;99.90;;;;;;4446727;28;660609;-71
2023/12/07 13:23:45;;;;;;;109.83;32.60;;;-0.80;99.90;;;;;;4429466;28;660569;-71
2023/12/07 13:26:33;;;;;;;126.87;36.87;;;-0.80;99.90;;;;;;4424902;27;662341;-71
2023/12/07 13:29:20;;;;;;;130.87;38.73;;;-0.90;99.90;;;;;;4449905;27;662206;-72
2023/12/07 13:32:08;;;;;;;60.30;18.30;;;-0.80;99.90;;;;;;4448631;28;662231;-71
2023/12/07 13:34:55;;;;;;;77.13;23.17;;;-0.90;99.90;;;;;;4461138;27;661826;-71
2023/12/07 13:37:42;;;;;;;129.93;38.77;;;-0.90;99.90;;;;;;4451779;27;661038;-71
2023/12/07 13:40:31;;;;;;;80.93;23.33;;;-0.80;99.90;;;;;;4457964;27;662215;-71
2023/12/07 13:43:18;;;;;;;137.40;37.60;;;-0.80;99.90;;;;;;4433417;28;660705;-72
2023/12/07 13:46:05;;;;;;;101.17;28.63;;;-0.80;99.90;;;;;;4457058;27;663145;-71
2023/12/07 13:48:52;;;;;;;107.10;30.10;;;-0.70;99.90;;;;;;4430265;27;662140;-70
2023/12/07 13:51:40;;;;;;;128.57;36.23;;;-0.70;99.90;;;;;;4449812;27;662583;-71
2023/12/07 13:54:27;;;;;;;135.57;38.43;;;-0.80;99.90;;;;;;4448678;27;663074;-71
2023/12/07 13:57:15;;;;;;;134.77;35.80;;;-0.80;99.90;;;;;;4422521;28;662917;-71
2023/12/07 14:00:03;;;;;;;135.67;40.87;;;-0.80;99.90;;;;;;4426851;27;662329;-72